TAP1545 LPPR-GVNP
Flight info
| Callsign | TAP1545 |
|---|---|
| Flight time | N/A |
| Altitude | 37000 |
| Route | ASMOV DCT BEXAL DCT SAMAR DCT YUSME DCT LIMAL/N0451F380 N873 IPERA DCT DIMKI UW21 BVT DISDA1H |
| Aircraft | A20N/M-SDE2E3FGHIRWXY/LB1 |
Departure
| Time | N/A |
|---|---|
| Airport | Francisco de Sá Carneiro Airport (LPPR) |
Arrival
| Time | 2026-04-24 22:45 |
|---|---|
| Airport | Nelson Mandela International Airport (GVNP) |
| Time | Latitude | Longitude | Altitude | Speed | Heading |
|---|---|---|---|---|---|
| 2026-04-24 21:50 | 19.93279 | -20.97419 | 37067 ft | 442 kts | 219° |
| 2026-04-24 21:50 | 19.90634 | -20.99091 | 37064 ft | 442 kts | 219° |
| 2026-04-24 21:51 | 19.85674 | -21.02226 | 37067 ft | 442 kts | 218° |
| 2026-04-24 21:51 | 19.80930 | -21.05222 | 37064 ft | 442 kts | 218° |
| 2026-04-24 21:52 | 19.75645 | -21.08557 | 37071 ft | 442 kts | 218° |
| 2026-04-24 21:52 | 19.70349 | -21.11896 | 37070 ft | 443 kts | 218° |
| 2026-04-24 21:53 | 19.65050 | -21.15235 | 37068 ft | 443 kts | 218° |
| 2026-04-24 21:53 | 19.59752 | -21.18570 | 37068 ft | 443 kts | 218° |
| 2026-04-24 21:54 | 19.56636 | -21.20531 | 37072 ft | 443 kts | 218° |
| 2026-04-24 21:55 | 19.53476 | -21.22516 | 37070 ft | 443 kts | 218° |
| 2026-04-24 21:55 | 19.48167 | -21.25855 | 37070 ft | 443 kts | 218° |
| 2026-04-24 21:56 | 19.42895 | -21.29167 | 37068 ft | 444 kts | 218° |
| 2026-04-24 21:56 | 19.37583 | -21.32500 | 37069 ft | 444 kts | 218° |
| 2026-04-24 21:57 | 19.32265 | -21.35835 | 37069 ft | 444 kts | 218° |
| 2026-04-24 21:57 | 19.26948 | -21.39167 | 37066 ft | 444 kts | 218° |
| 2026-04-24 21:58 | 19.21581 | -21.42526 | 37067 ft | 444 kts | 218° |
| 2026-04-24 21:58 | 19.16269 | -21.45850 | 37071 ft | 445 kts | 218° |
| 2026-04-24 21:59 | 19.10969 | -21.49164 | 37067 ft | 445 kts | 218° |
| 2026-04-24 21:59 | 19.05580 | -21.52532 | 37069 ft | 445 kts | 218° |
| 2026-04-24 22:00 | 19.00323 | -21.55814 | 37055 ft | 445 kts | 217° |
| 2026-04-24 22:00 | 18.94984 | -21.59144 | 37097 ft | 444 kts | 217° |
| 2026-04-24 22:01 | 18.89608 | -21.62487 | 37070 ft | 444 kts | 217° |
| 2026-04-24 22:01 | 18.86888 | -21.64180 | 37090 ft | 444 kts | 217° |
| 2026-04-24 22:02 | 18.85468 | -21.65064 | 37045 ft | 446 kts | 217° |
| 2026-04-24 22:02 | 18.81828 | -21.67319 | 37064 ft | 444 kts | 217° |
| 2026-04-24 22:03 | 18.76984 | -21.70337 | 37060 ft | 444 kts | 217° |
| 2026-04-24 22:03 | 18.71687 | -21.73635 | 37060 ft | 444 kts | 217° |
| 2026-04-24 22:04 | 18.66367 | -21.76941 | 37061 ft | 444 kts | 217° |
| 2026-04-24 22:04 | 18.61033 | -21.80252 | 37062 ft | 444 kts | 217° |
| 2026-04-24 22:05 | 18.55704 | -21.83558 | 37065 ft | 445 kts | 217° |
| 2026-04-24 22:05 | 18.50368 | -21.86865 | 37068 ft | 445 kts | 217° |
| 2026-04-24 22:06 | 18.45032 | -21.90170 | 37069 ft | 445 kts | 217° |
| 2026-04-24 22:06 | 18.39733 | -21.93450 | 37070 ft | 445 kts | 217° |
| 2026-04-24 22:07 | 18.34401 | -21.96747 | 37071 ft | 444 kts | 217° |
| 2026-04-24 22:07 | 18.29063 | -22.00047 | 37066 ft | 444 kts | 217° |
| 2026-04-24 22:08 | 18.23731 | -22.03339 | 37068 ft | 444 kts | 217° |
| 2026-04-24 22:08 | 18.18400 | -22.06630 | 37070 ft | 444 kts | 217° |
| 2026-04-24 22:09 | 18.13079 | -22.09912 | 37064 ft | 443 kts | 217° |
| 2026-04-24 22:09 | 18.07748 | -22.13197 | 37052 ft | 443 kts | 217° |
| 2026-04-24 22:10 | 18.02452 | -22.16459 | 37048 ft | 443 kts | 216° |
| 2026-04-24 22:10 | 17.97131 | -22.19734 | 37050 ft | 443 kts | 216° |
| 2026-04-24 22:11 | 17.91811 | -22.23006 | 37064 ft | 443 kts | 216° |
| 2026-04-24 22:11 | 17.86210 | -22.25808 | 37050 ft | 450 kts | 206° |
| 2026-04-24 22:12 | 17.80271 | -22.27974 | 37044 ft | 451 kts | 205° |
| 2026-04-24 22:12 | 17.74383 | -22.30141 | 37049 ft | 451 kts | 205° |
| 2026-04-24 22:13 | 17.68455 | -22.32323 | 37054 ft | 451 kts | 205° |
| 2026-04-24 22:13 | 17.62529 | -22.34501 | 37056 ft | 451 kts | 205° |
| 2026-04-24 22:14 | 17.56599 | -22.36679 | 37055 ft | 451 kts | 205° |
| 2026-04-24 22:14 | 17.50678 | -22.38851 | 37059 ft | 450 kts | 205° |
| 2026-04-24 22:15 | 17.44766 | -22.41019 | 37053 ft | 450 kts | 205° |
| 2026-04-24 22:15 | 17.38860 | -22.43183 | 37054 ft | 450 kts | 205° |
| 2026-04-24 22:16 | 17.32952 | -22.45346 | 37052 ft | 449 kts | 205° |
| 2026-04-24 22:16 | 17.27095 | -22.47489 | 37053 ft | 449 kts | 205° |
| 2026-04-24 22:17 | 17.21204 | -22.49644 | 37049 ft | 448 kts | 205° |
| 2026-04-24 22:17 | 17.15307 | -22.51798 | 37048 ft | 448 kts | 205° |
| 2026-04-24 22:18 | 17.09417 | -22.53950 | 37047 ft | 447 kts | 204° |
| 2026-04-24 22:18 | 17.03573 | -22.56082 | 37048 ft | 447 kts | 204° |
| 2026-04-24 22:19 | 16.97695 | -22.58226 | 37043 ft | 447 kts | 204° |
| 2026-04-24 22:19 | 16.91866 | -22.60350 | 37038 ft | 447 kts | 204° |
| 2026-04-24 22:20 | 16.85989 | -22.62491 | 37028 ft | 446 kts | 204° |
| 2026-04-24 22:20 | 16.80122 | -22.64626 | 37030 ft | 446 kts | 204° |
| 2026-04-24 22:21 | 16.74253 | -22.66763 | 37027 ft | 446 kts | 204° |
| 2026-04-24 22:21 | 16.68395 | -22.68892 | 37028 ft | 446 kts | 204° |
| 2026-04-24 22:22 | 16.62525 | -22.71023 | 37028 ft | 446 kts | 204° |
| 2026-04-24 22:22 | 16.56696 | -22.73139 | 37034 ft | 446 kts | 204° |
| 2026-04-24 22:23 | 16.50831 | -22.75267 | 37029 ft | 446 kts | 204° |
| 2026-04-24 22:23 | 16.44965 | -22.77393 | 37028 ft | 446 kts | 204° |
| 2026-04-24 22:24 | 16.39092 | -22.79521 | 37023 ft | 446 kts | 204° |
| 2026-04-24 22:24 | 16.33220 | -22.81647 | 37036 ft | 446 kts | 204° |
| 2026-04-24 22:25 | 16.27347 | -22.83773 | 37032 ft | 446 kts | 204° |
| 2026-04-24 22:25 | 16.21477 | -22.85895 | 36782 ft | 447 kts | 204° |
| 2026-04-24 22:25 | 16.18543 | -22.86956 | 36535 ft | 447 kts | 204° |
| 2026-04-24 22:26 | 16.15598 | -22.88021 | 36291 ft | 448 kts | 204° |
| 2026-04-24 22:26 | 16.12700 | -22.89103 | 36040 ft | 447 kts | 207° |
| 2026-04-24 22:26 | 16.10069 | -22.90232 | 35563 ft | 450 kts | 207° |
| 2026-04-24 22:26 | 16.07157 | -22.91491 | 34734 ft | 456 kts | 207° |
| 2026-04-24 22:27 | 16.04192 | -22.92771 | 33664 ft | 466 kts | 207° |
| 2026-04-24 22:27 | 16.01174 | -22.94071 | 32779 ft | 469 kts | 207° |
| 2026-04-24 22:27 | 15.98164 | -22.95360 | 32180 ft | 466 kts | 207° |
| 2026-04-24 22:27 | 15.95164 | -22.96645 | 31240 ft | 470 kts | 207° |
| 2026-04-24 22:28 | 15.92120 | -22.97952 | 30361 ft | 474 kts | 207° |
| 2026-04-24 22:28 | 15.89080 | -22.99254 | 29749 ft | 470 kts | 207° |
| 2026-04-24 22:28 | 15.86092 | -23.00530 | 29302 ft | 461 kts | 207° |
| 2026-04-24 22:28 | 15.83127 | -23.01799 | 28554 ft | 460 kts | 207° |
| 2026-04-24 22:29 | 15.77335 | -23.04279 | 27407 ft | 450 kts | 207° |
| 2026-04-24 22:29 | 15.74439 | -23.05520 | 26804 ft | 447 kts | 207° |
| 2026-04-24 22:29 | 15.71576 | -23.06745 | 26212 ft | 443 kts | 207° |
| 2026-04-24 22:30 | 15.68728 | -23.07965 | 25643 ft | 440 kts | 207° |
| 2026-04-24 22:30 | 15.65904 | -23.09172 | 25017 ft | 438 kts | 207° |
| 2026-04-24 22:30 | 15.64035 | -23.09972 | 24621 ft | 438 kts | 207° |
| 2026-04-24 22:30 | 15.60276 | -23.11579 | 23840 ft | 435 kts | 207° |
| 2026-04-24 22:31 | 15.58421 | -23.12372 | 23369 ft | 435 kts | 206° |
| 2026-04-24 22:31 | 15.55637 | -23.13561 | 22869 ft | 429 kts | 206° |
| 2026-04-24 22:31 | 15.52882 | -23.14732 | 22144 ft | 428 kts | 205° |
| 2026-04-24 22:31 | 15.50122 | -23.15838 | 21664 ft | 421 kts | 204° |
| 2026-04-24 22:32 | 15.47378 | -23.16908 | 20978 ft | 421 kts | 204° |
| 2026-04-24 22:32 | 15.44660 | -23.17966 | 20489 ft | 414 kts | 204° |
| 2026-04-24 22:32 | 15.41962 | -23.19021 | 19848 ft | 413 kts | 204° |
| 2026-04-24 22:32 | 15.39291 | -23.20071 | 19261 ft | 409 kts | 204° |
| 2026-04-24 22:33 | 15.36636 | -23.21118 | 18724 ft | 405 kts | 203° |
| 2026-04-24 22:33 | 15.34040 | -23.22142 | 18062 ft | 404 kts | 203° |
| 2026-04-24 22:33 | 15.31434 | -23.23170 | 17545 ft | 398 kts | 203° |
| 2026-04-24 22:33 | 15.28862 | -23.24182 | 16980 ft | 393 kts | 203° |
| 2026-04-24 22:34 | 15.26323 | -23.25182 | 16417 ft | 388 kts | 203° |
| 2026-04-24 22:34 | 15.23806 | -23.26174 | 15848 ft | 384 kts | 203° |
| 2026-04-24 22:34 | 15.21317 | -23.27154 | 15293 ft | 381 kts | 203° |
| 2026-04-24 22:34 | 15.18849 | -23.28127 | 14744 ft | 378 kts | 203° |
| 2026-04-24 22:35 | 15.16396 | -23.29094 | 14189 ft | 375 kts | 203° |
| 2026-04-24 22:35 | 15.13963 | -23.30052 | 13607 ft | 373 kts | 203° |
| 2026-04-24 22:35 | 15.11552 | -23.31001 | 13088 ft | 368 kts | 202° |
| 2026-04-24 22:35 | 15.09170 | -23.31937 | 12549 ft | 364 kts | 202° |
| 2026-04-24 22:36 | 15.06819 | -23.32863 | 11978 ft | 361 kts | 202° |
| 2026-04-24 22:36 | 15.04472 | -23.33783 | 11493 ft | 357 kts | 202° |
| 2026-04-24 22:36 | 15.02188 | -23.34677 | 11274 ft | 344 kts | 202° |
| 2026-04-24 22:36 | 15.00021 | -23.35528 | 11164 ft | 334 kts | 202° |
| 2026-04-24 22:37 | 14.97806 | -23.36401 | 11067 ft | 338 kts | 202° |
| 2026-04-24 22:37 | 14.95641 | -23.37253 | 10963 ft | 326 kts | 202° |
| 2026-04-24 22:37 | 14.93590 | -23.38058 | 10871 ft | 313 kts | 202° |
| 2026-04-24 22:37 | 14.91593 | -23.38842 | 10775 ft | 299 kts | 202° |
| 2026-04-24 22:38 | 14.89688 | -23.39590 | 10672 ft | 287 kts | 202° |
| 2026-04-24 22:38 | 14.87861 | -23.40308 | 10567 ft | 274 kts | 202° |
| 2026-04-24 22:38 | 14.86113 | -23.40994 | 10473 ft | 263 kts | 202° |
| 2026-04-24 22:38 | 14.84406 | -23.41665 | 10134 ft | 263 kts | 202° |
| 2026-04-24 22:39 | 14.82689 | -23.42340 | 9741 ft | 264 kts | 202° |
| 2026-04-24 22:39 | 14.80970 | -23.43015 | 9333 ft | 264 kts | 202° |
| 2026-04-24 22:39 | 14.79251 | -23.43688 | 8886 ft | 266 kts | 202° |
| 2026-04-24 22:39 | 14.77483 | -23.44381 | 8194 ft | 278 kts | 202° |
| 2026-04-24 22:40 | 14.75640 | -23.45106 | 7480 ft | 289 kts | 202° |
| 2026-04-24 22:40 | 14.73866 | -23.46076 | 6779 ft | 297 kts | 221° |
| 2026-04-24 22:40 | 14.72580 | -23.47753 | 6080 ft | 303 kts | 246° |
| 2026-04-24 22:40 | 14.72080 | -23.49865 | 5354 ft | 307 kts | 270° |
| 2026-04-24 22:41 | 14.72461 | -23.52036 | 4646 ft | 312 kts | 294° |
| 2026-04-24 22:41 | 14.73664 | -23.53898 | 3905 ft | 315 kts | 317° |
| 2026-04-24 22:41 | 14.75502 | -23.55109 | 3307 ft | 315 kts | 342° |
| 2026-04-24 22:41 | 14.77587 | -23.55385 | 3082 ft | 293 kts | 6° |
| 2026-04-24 22:42 | 14.79464 | -23.54827 | 2899 ft | 273 kts | 26° |
| 2026-04-24 22:42 | 14.81096 | -23.53969 | 2748 ft | 254 kts | 25° |
| 2026-04-24 22:42 | 14.82650 | -23.53234 | 2603 ft | 237 kts | 22° |
| 2026-04-24 22:42 | 14.84115 | -23.52602 | 2541 ft | 219 kts | 21° |
| 2026-04-24 22:43 | 14.85467 | -23.52040 | 2399 ft | 200 kts | 21° |
| 2026-04-24 22:43 | 14.86692 | -23.51536 | 2309 ft | 176 kts | 21° |
| 2026-04-24 22:43 | 14.87768 | -23.51096 | 2148 ft | 157 kts | 21° |
| 2026-04-24 22:43 | 14.88700 | -23.50705 | 2055 ft | 132 kts | 21° |
| 2026-04-24 22:44 | 14.89531 | -23.50371 | 1749 ft | 127 kts | 22° |
| 2026-04-24 22:44 | 14.90350 | -23.50034 | 1376 ft | 128 kts | 21° |
| 2026-04-24 22:44 | 14.91191 | -23.49680 | 844 ft | 137 kts | 21° |
| 2026-04-24 22:44 | 14.92037 | -23.49329 | 632 ft | 125 kts | 22° |
| 2026-04-24 22:45 | 14.92814 | -23.49008 | 398 ft | 113 kts | 21° |
| 2026-04-24 22:45 | 14.93595 | -23.48684 | 336 ft | 125 kts | 21° |
| 2026-04-24 22:45 | 14.94283 | -23.48400 | 323 ft | 67 kts | 21° |
| 2026-04-24 22:45 | 14.94531 | -23.48327 | 328 ft | 26 kts | 328° |
| 2026-04-24 22:46 | 14.94609 | -23.48469 | 329 ft | 20 kts | 297° |
| 2026-04-24 22:46 | 14.94619 | -23.48495 | 327 ft | 0 kts | 289° |